sensor_id;sensor_type;location;lat;lon;timestamp;P1;durP1;ratioP1;P2;durP2;ratioP2
3000;SDS011;1510;51.072;6.678;2024-01-15T00:01:50;539.97;;;516.67;;
3000;SDS011;1510;51.072;6.678;2024-01-15T00:04:16;548.03;;;525.63;;
3000;SDS011;1510;51.072;6.678;2024-01-15T00:06:43;544.77;;;522.80;;
3000;SDS011;1510;51.072;6.678;2024-01-15T00:09:10;570.60;;;547.23;;
3000;SDS011;1510;51.072;6.678;2024-01-15T00:11:37;610.67;;;585.17;;
3000;SDS011;1510;51.072;6.678;2024-01-15T00:14:04;584.93;;;561.53;;
3000;SDS011;1510;51.072;6.678;2024-01-15T00:16:32;620.80;;;594.43;;
3000;SDS011;1510;51.072;6.678;2024-01-15T00:18:59;653.40;;;626.20;;
3000;SDS011;1510;51.072;6.678;2024-01-15T00:21:25;697.60;;;665.93;;
3000;SDS011;1510;51.072;6.678;2024-01-15T00:23:52;709.47;;;677.87;;
3000;SDS011;1510;51.072;6.678;2024-01-15T00:26:20;737.30;;;701.93;;
3000;SDS011;1510;51.072;6.678;2024-01-15T00:28:46;741.30;;;706.30;;
3000;SDS011;1510;51.072;6.678;2024-01-15T00:31:15;764.67;;;726.93;;
3000;SDS011;1510;51.072;6.678;2024-01-15T00:33:43;735.00;;;701.37;;
3000;SDS011;1510;51.072;6.678;2024-01-15T00:36:10;748.97;;;712.83;;
3000;SDS011;1510;51.072;6.678;2024-01-15T00:38:37;745.67;;;710.00;;
3000;SDS011;1510;51.072;6.678;2024-01-15T00:41:04;747.63;;;711.83;;
3000;SDS011;1510;51.072;6.678;2024-01-15T00:43:30;752.07;;;715.67;;
3000;SDS011;1510;51.072;6.678;2024-01-15T00:45:57;762.50;;;722.03;;
3000;SDS011;1510;51.072;6.678;2024-01-15T00:48:24;758.90;;;720.33;;
3000;SDS011;1510;51.072;6.678;2024-01-15T00:50:52;784.13;;;741.10;;
3000;SDS011;1510;51.072;6.678;2024-01-15T00:53:19;769.20;;;728.50;;
3000;SDS011;1510;51.072;6.678;2024-01-15T00:55:47;773.00;;;730.83;;
3000;SDS011;1510;51.072;6.678;2024-01-15T00:58:13;774.23;;;730.27;;
3000;SDS011;1510;51.072;6.678;2024-01-15T01:00:40;761.07;;;721.80;;
3000;SDS011;1510;51.072;6.678;2024-01-15T01:03:08;749.83;;;711.53;;
3000;SDS011;1510;51.072;6.678;2024-01-15T01:05:34;747.03;;;709.67;;
3000;SDS011;1510;51.072;6.678;2024-01-15T01:08:03;725.07;;;690.90;;
3000;SDS011;1510;51.072;6.678;2024-01-15T01:10:30;738.97;;;702.37;;
3000;SDS011;1510;51.072;6.678;2024-01-15T01:12:57;717.67;;;685.23;;
3000;SDS011;1510;51.072;6.678;2024-01-15T01:15:23;736.60;;;701.10;;
3000;SDS011;1510;51.072;6.678;2024-01-15T01:17:50;745.27;;;708.47;;
3000;SDS011;1510;51.072;6.678;2024-01-15T01:20:17;754.10;;;715.10;;
3000;SDS011;1510;51.072;6.678;2024-01-15T01:22:44;749.33;;;710.47;;
3000;SDS011;1510;51.072;6.678;2024-01-15T01:25:12;722.97;;;688.27;;
3000;SDS011;1510;51.072;6.678;2024-01-15T01:27:40;722.53;;;688.53;;
3000;SDS011;1510;51.072;6.678;2024-01-15T01:30:07;732.43;;;696.97;;
3000;SDS011;1510;51.072;6.678;2024-01-15T01:32:34;734.57;;;697.37;;
3000;SDS011;1510;51.072;6.678;2024-01-15T01:35:01;742.47;;;704.77;;
3000;SDS011;1510;51.072;6.678;2024-01-15T01:37:28;739.00;;;700.80;;
3000;SDS011;1510;51.072;6.678;2024-01-15T01:39:55;734.00;;;696.90;;
3000;SDS011;1510;51.072;6.678;2024-01-15T01:42:23;736.00;;;698.87;;
3000;SDS011;1510;51.072;6.678;2024-01-15T01:44:50;727.70;;;692.00;;
3000;SDS011;1510;51.072;6.678;2024-01-15T01:47:16;717.33;;;682.37;;
3000;SDS011;1510;51.072;6.678;2024-01-15T01:49:44;716.97;;;681.87;;
3000;SDS011;1510;51.072;6.678;2024-01-15T01:52:12;712.23;;;678.23;;
3000;SDS011;1510;51.072;6.678;2024-01-15T01:54:40;731.57;;;695.60;;
3000;SDS011;1510;51.072;6.678;2024-01-15T01:57:07;737.17;;;700.27;;
3000;SDS011;1510;51.072;6.678;2024-01-15T01:59:36;734.13;;;696.33;;
3000;SDS011;1510;51.072;6.678;2024-01-15T02:02:03;736.13;;;698.73;;
3000;SDS011;1510;51.072;6.678;2024-01-15T02:04:31;731.30;;;695.83;;
3000;SDS011;1510;51.072;6.678;2024-01-15T02:06:58;726.80;;;691.33;;
3000;SDS011;1510;51.072;6.678;2024-01-15T02:09:25;657.93;;;626.87;;
3000;SDS011;1510;51.072;6.678;2024-01-15T02:11:52;695.20;;;658.90;;
3000;SDS011;1510;51.072;6.678;2024-01-15T02:14:19;686.50;;;651.90;;
3000;SDS011;1510;51.072;6.678;2024-01-15T02:16:48;682.93;;;647.47;;
3000;SDS011;1510;51.072;6.678;2024-01-15T02:19:15;694.37;;;658.37;;
3000;SDS011;1510;51.072;6.678;2024-01-15T02:21:42;686.00;;;651.17;;
3000;SDS011;1510;51.072;6.678;2024-01-15T02:24:11;680.87;;;647.17;;
3000;SDS011;1510;51.072;6.678;2024-01-15T02:26:38;682.23;;;649.27;;
3000;SDS011;1510;51.072;6.678;2024-01-15T02:29:05;673.70;;;640.13;;
3000;SDS011;1510;51.072;6.678;2024-01-15T02:31:34;673.00;;;641.20;;
3000;SDS011;1510;51.072;6.678;2024-01-15T02:34:01;673.27;;;640.43;;
3000;SDS011;1510;51.072;6.678;2024-01-15T02:36:28;666.10;;;632.23;;
3000;SDS011;1510;51.072;6.678;2024-01-15T02:38:54;663.50;;;630.03;;
3000;SDS011;1510;51.072;6.678;2024-01-15T02:41:23;672.27;;;638.50;;
3000;SDS011;1510;51.072;6.678;2024-01-15T02:43:49;646.60;;;615.50;;
3000;SDS011;1510;51.072;6.678;2024-01-15T02:46:16;633.23;;;604.23;;
3000;SDS011;1510;51.072;6.678;2024-01-15T02:48:43;621.00;;;591.53;;
3000;SDS011;1510;51.072;6.678;2024-01-15T02:51:10;619.33;;;591.47;;
3000;SDS011;1510;51.072;6.678;2024-01-15T02:53:36;627.63;;;599.27;;
3000;SDS011;1510;51.072;6.678;2024-01-15T02:56:03;635.63;;;606.53;;
3000;SDS011;1510;51.072;6.678;2024-01-15T02:58:32;627.67;;;598.73;;
3000;SDS011;1510;51.072;6.678;2024-01-15T03:00:58;629.10;;;600.30;;
3000;SDS011;1510;51.072;6.678;2024-01-15T03:03:25;627.23;;;599.53;;
3000;SDS011;1510;51.072;6.678;2024-01-15T03:05:52;638.07;;;609.47;;
3000;SDS011;1510;51.072;6.678;2024-01-15T03:08:19;623.57;;;595.57;;
3000;SDS011;1510;51.072;6.678;2024-01-15T03:10:47;621.17;;;592.93;;
3000;SDS011;1510;51.072;6.678;2024-01-15T03:13:14;627.47;;;600.07;;
3000;SDS011;1510;51.072;6.678;2024-01-15T03:15:42;615.97;;;589.27;;
3000;SDS011;1510;51.072;6.678;2024-01-15T03:18:09;611.97;;;585.30;;
3000;SDS011;1510;51.072;6.678;2024-01-15T03:20:36;618.17;;;589.77;;
3000;SDS011;1510;51.072;6.678;2024-01-15T03:23:02;622.87;;;594.37;;
3000;SDS011;1510;51.072;6.678;2024-01-15T03:25:29;641.80;;;612.50;;
3000;SDS011;1510;51.072;6.678;2024-01-15T03:27:56;645.43;;;616.03;;
3000;SDS011;1510;51.072;6.678;2024-01-15T03:30:23;660.77;;;628.20;;
3000;SDS011;1510;51.072;6.678;2024-01-15T03:32:51;659.37;;;627.87;;
3000;SDS011;1510;51.072;6.678;2024-01-15T03:35:18;654.40;;;622.97;;
3000;SDS011;1510;51.072;6.678;2024-01-15T03:37:44;661.27;;;629.07;;
3000;SDS011;1510;51.072;6.678;2024-01-15T03:40:11;661.63;;;630.67;;
3000;SDS011;1510;51.072;6.678;2024-01-15T03:42:38;632.53;;;605.07;;
3000;SDS011;1510;51.072;6.678;2024-01-15T03:45:05;650.00;;;619.50;;
3000;SDS011;1510;51.072;6.678;2024-01-15T03:47:32;652.33;;;620.63;;
3000;SDS011;1510;51.072;6.678;2024-01-15T03:50:01;637.50;;;609.53;;
3000;SDS011;1510;51.072;6.678;2024-01-15T03:52:27;666.23;;;634.33;;
3000;SDS011;1510;51.072;6.678;2024-01-15T03:54:55;650.00;;;619.83;;
3000;SDS011;1510;51.072;6.678;2024-01-15T03:57:22;652.00;;;621.77;;
3000;SDS011;1510;51.072;6.678;2024-01-15T03:59:49;658.30;;;628.43;;
3000;SDS011;1510;51.072;6.678;2024-01-15T04:02:15;656.03;;;626.87;;
3000;SDS011;1510;51.072;6.678;2024-01-15T04:04:42;663.50;;;633.37;;
3000;SDS011;1510;51.072;6.678;2024-01-15T04:07:10;648.03;;;618.37;;
3000;SDS011;1510;51.072;6.678;2024-01-15T04:09:37;659.73;;;628.87;;
3000;SDS011;1510;51.072;6.678;2024-01-15T04:12:04;647.70;;;618.13;;
3000;SDS011;1510;51.072;6.678;2024-01-15T04:14:31;636.37;;;607.90;;
3000;SDS011;1510;51.072;6.678;2024-01-15T04:16:58;641.20;;;611.43;;
3000;SDS011;1510;51.072;6.678;2024-01-15T04:19:25;641.83;;;611.57;;
3000;SDS011;1510;51.072;6.678;2024-01-15T04:21:51;625.40;;;597.00;;
3000;SDS011;1510;51.072;6.678;2024-01-15T04:24:19;632.30;;;603.70;;
3000;SDS011;1510;51.072;6.678;2024-01-15T04:26:46;632.97;;;604.40;;
3000;SDS011;1510;51.072;6.678;2024-01-15T04:29:13;656.60;;;625.40;;
3000;SDS011;1510;51.072;6.678;2024-01-15T04:31:40;654.13;;;623.57;;
3000;SDS011;1510;51.072;6.678;2024-01-15T04:34:07;651.30;;;621.57;;
3000;SDS011;1510;51.072;6.678;2024-01-15T04:36:38;648.50;;;618.23;;
3000;SDS011;1510;51.072;6.678;2024-01-15T04:39:05;638.40;;;608.53;;
3000;SDS011;1510;51.072;6.678;2024-01-15T04:41:33;637.07;;;607.47;;
3000;SDS011;1510;51.072;6.678;2024-01-15T04:44:00;633.43;;;603.70;;
3000;SDS011;1510;51.072;6.678;2024-01-15T04:46:27;624.83;;;596.77;;
3000;SDS011;1510;51.072;6.678;2024-01-15T04:48:54;659.20;;;627.70;;
3000;SDS011;1510;51.072;6.678;2024-01-15T04:51:20;643.73;;;615.47;;
3000;SDS011;1510;51.072;6.678;2024-01-15T04:53:47;639.97;;;611.47;;
3000;SDS011;1510;51.072;6.678;2024-01-15T04:56:14;638.97;;;612.27;;
3000;SDS011;1510;51.072;6.678;2024-01-15T04:58:43;654.60;;;626.30;;
3000;SDS011;1510;51.072;6.678;2024-01-15T05:01:10;640.73;;;612.93;;
3000;SDS011;1510;51.072;6.678;2024-01-15T05:03:37;634.87;;;606.37;;
3000;SDS011;1510;51.072;6.678;2024-01-15T05:06:04;627.90;;;600.00;;
3000;SDS011;1510;51.072;6.678;2024-01-15T05:08:31;594.77;;;569.67;;
3000;SDS011;1510;51.072;6.678;2024-01-15T05:10:58;604.43;;;578.50;;
3000;SDS011;1510;51.072;6.678;2024-01-15T05:13:24;609.07;;;583.17;;
3000;SDS011;1510;51.072;6.678;2024-01-15T05:15:53;607.17;;;581.00;;
3000;SDS011;1510;51.072;6.678;2024-01-15T05:18:19;647.43;;;618.90;;
3000;SDS011;1510;51.072;6.678;2024-01-15T05:20:47;666.83;;;637.33;;
3000;SDS011;1510;51.072;6.678;2024-01-15T05:23:13;682.93;;;651.67;;
3000;SDS011;1510;51.072;6.678;2024-01-15T05:25:40;687.97;;;655.37;;
3000;SDS011;1510;51.072;6.678;2024-01-15T05:28:07;689.43;;;657.83;;
3000;SDS011;1510;51.072;6.678;2024-01-15T05:30:34;678.63;;;647.07;;
3000;SDS011;1510;51.072;6.678;2024-01-15T05:33:02;681.63;;;650.23;;
3000;SDS011;1510;51.072;6.678;2024-01-15T05:35:29;681.33;;;650.03;;
3000;SDS011;1510;51.072;6.678;2024-01-15T05:37:56;687.23;;;654.37;;
3000;SDS011;1510;51.072;6.678;2024-01-15T05:40:23;692.63;;;659.30;;
3000;SDS011;1510;51.072;6.678;2024-01-15T05:42:50;684.37;;;650.83;;
3000;SDS011;1510;51.072;6.678;2024-01-15T05:45:17;667.27;;;636.87;;
3000;SDS011;1510;51.072;6.678;2024-01-15T05:47:44;664.43;;;634.93;;
3000;SDS011;1510;51.072;6.678;2024-01-15T05:50:12;665.43;;;635.63;;
3000;SDS011;1510;51.072;6.678;2024-01-15T05:52:37;651.17;;;622.77;;
3000;SDS011;1510;51.072;6.678;2024-01-15T05:55:04;651.87;;;622.87;;
3000;SDS011;1510;51.072;6.678;2024-01-15T05:57:31;654.13;;;625.13;;
3000;SDS011;1510;51.072;6.678;2024-01-15T05:59:58;674.40;;;645.03;;
3000;SDS011;1510;51.072;6.678;2024-01-15T06:02:26;655.90;;;627.97;;
3000;SDS011;1510;51.072;6.678;2024-01-15T06:04:52;649.03;;;621.30;;
3000;SDS011;1510;51.072;6.678;2024-01-15T06:07:21;641.97;;;613.77;;
3000;SDS011;1510;51.072;6.678;2024-01-15T06:09:48;633.07;;;606.00;;
3000;SDS011;1510;51.072;6.678;2024-01-15T06:12:15;620.23;;;593.07;;
3000;SDS011;1510;51.072;6.678;2024-01-15T06:14:42;619.37;;;591.57;;
3000;SDS011;1510;51.072;6.678;2024-01-15T06:17:09;634.27;;;604.70;;
3000;SDS011;1510;51.072;6.678;2024-01-15T06:19:36;638.63;;;610.63;;
3000;SDS011;1510;51.072;6.678;2024-01-15T06:22:03;611.90;;;586.00;;
3000;SDS011;1510;51.072;6.678;2024-01-15T06:24:31;602.90;;;576.57;;
3000;SDS011;1510;51.072;6.678;2024-01-15T06:26:58;600.97;;;575.17;;
3000;SDS011;1510;51.072;6.678;2024-01-15T06:29:25;637.13;;;609.27;;
3000;SDS011;1510;51.072;6.678;2024-01-15T06:31:53;658.60;;;629.67;;
3000;SDS011;1510;51.072;6.678;2024-01-15T06:34:19;657.83;;;628.83;;
3000;SDS011;1510;51.072;6.678;2024-01-15T06:36:46;685.70;;;653.80;;
3000;SDS011;1510;51.072;6.678;2024-01-15T06:39:13;693.87;;;660.30;;
3000;SDS011;1510;51.072;6.678;2024-01-15T06:41:50;675.27;;;643.97;;
3000;SDS011;1510;51.072;6.678;2024-01-15T06:44:17;674.73;;;643.27;;
3000;SDS011;1510;51.072;6.678;2024-01-15T06:46:46;691.53;;;657.37;;
3000;SDS011;1510;51.072;6.678;2024-01-15T06:49:14;696.43;;;662.77;;
3000;SDS011;1510;51.072;6.678;2024-01-15T06:51:41;701.47;;;667.87;;
3000;SDS011;1510;51.072;6.678;2024-01-15T06:54:07;680.90;;;649.03;;
3000;SDS011;1510;51.072;6.678;2024-01-15T06:56:35;675.33;;;643.57;;
3000;SDS011;1510;51.072;6.678;2024-01-15T06:59:03;668.93;;;636.80;;
3000;SDS011;1510;51.072;6.678;2024-01-15T07:01:30;669.73;;;637.60;;
3000;SDS011;1510;51.072;6.678;2024-01-15T07:03:57;645.90;;;617.30;;
3000;SDS011;1510;51.072;6.678;2024-01-15T07:06:24;630.67;;;603.30;;
3000;SDS011;1510;51.072;6.678;2024-01-15T07:08:51;640.83;;;611.60;;
3000;SDS011;1510;51.072;6.678;2024-01-15T07:11:17;623.37;;;596.10;;
3000;SDS011;1510;51.072;6.678;2024-01-15T07:13:44;623.83;;;595.97;;
3000;SDS011;1510;51.072;6.678;2024-01-15T07:16:12;635.63;;;606.80;;
3000;SDS011;1510;51.072;6.678;2024-01-15T07:18:39;641.03;;;612.27;;
3000;SDS011;1510;51.072;6.678;2024-01-15T07:21:06;636.03;;;607.33;;
3000;SDS011;1510;51.072;6.678;2024-01-15T07:23:33;615.10;;;588.00;;
3000;SDS011;1510;51.072;6.678;2024-01-15T07:25:59;617.30;;;590.30;;
3000;SDS011;1510;51.072;6.678;2024-01-15T07:28:28;610.87;;;584.17;;
3000;SDS011;1510;51.072;6.678;2024-01-15T07:30:55;603.77;;;577.97;;
3000;SDS011;1510;51.072;6.678;2024-01-15T07:33:23;596.27;;;570.03;;
3000;SDS011;1510;51.072;6.678;2024-01-15T07:35:51;598.73;;;573.23;;
3000;SDS011;1510;51.072;6.678;2024-01-15T07:38:24;591.87;;;565.57;;
3000;SDS011;1510;51.072;6.678;2024-01-15T07:40:51;572.97;;;547.37;;
3000;SDS011;1510;51.072;6.678;2024-01-15T07:43:18;570.57;;;546.43;;
3000;SDS011;1510;51.072;6.678;2024-01-15T07:45:45;571.17;;;546.37;;
3000;SDS011;1510;51.072;6.678;2024-01-15T07:48:12;557.33;;;532.63;;
3000;SDS011;1510;51.072;6.678;2024-01-15T07:50:40;547.83;;;524.57;;
3000;SDS011;1510;51.072;6.678;2024-01-15T07:53:07;533.90;;;511.67;;
3000;SDS011;1510;51.072;6.678;2024-01-15T07:55:34;540.47;;;517.40;;
3000;SDS011;1510;51.072;6.678;2024-01-15T07:58:00;544.47;;;520.63;;
3000;SDS011;1510;51.072;6.678;2024-01-15T08:00:28;539.33;;;515.83;;
3000;SDS011;1510;51.072;6.678;2024-01-15T08:02:55;530.83;;;508.50;;
3000;SDS011;1510;51.072;6.678;2024-01-15T08:05:21;522.80;;;501.53;;
3000;SDS011;1510;51.072;6.678;2024-01-15T08:07:49;510.70;;;489.50;;
3000;SDS011;1510;51.072;6.678;2024-01-15T08:10:16;466.70;;;448.20;;
3000;SDS011;1510;51.072;6.678;2024-01-15T08:12:43;503.20;;;481.50;;
3000;SDS011;1510;51.072;6.678;2024-01-15T08:15:10;503.10;;;481.73;;
3000;SDS011;1510;51.072;6.678;2024-01-15T08:17:37;507.77;;;486.67;;
3000;SDS011;1510;51.072;6.678;2024-01-15T08:20:04;534.77;;;513.53;;
3000;SDS011;1510;51.072;6.678;2024-01-15T08:22:31;564.93;;;541.47;;
3000;SDS011;1510;51.072;6.678;2024-01-15T08:24:59;609.83;;;584.87;;
3000;SDS011;1510;51.072;6.678;2024-01-15T08:27:26;672.70;;;642.17;;
3000;SDS011;1510;51.072;6.678;2024-01-15T08:29:53;693.27;;;660.27;;
3000;SDS011;1510;51.072;6.678;2024-01-15T08:32:20;691.23;;;658.70;;
3000;SDS011;1510;51.072;6.678;2024-01-15T08:34:47;659.50;;;630.77;;
3000;SDS011;1510;51.072;6.678;2024-01-15T08:37:17;667.67;;;637.07;;
3000;SDS011;1510;51.072;6.678;2024-01-15T08:39:44;651.53;;;622.77;;
3000;SDS011;1510;51.072;6.678;2024-01-15T08:42:12;656.00;;;626.60;;
3000;SDS011;1510;51.072;6.678;2024-01-15T08:44:39;678.10;;;647.03;;
3000;SDS011;1510;51.072;6.678;2024-01-15T08:47:08;682.93;;;651.57;;
3000;SDS011;1510;51.072;6.678;2024-01-15T08:49:34;705.10;;;671.70;;
3000;SDS011;1510;51.072;6.678;2024-01-15T08:52:01;707.97;;;673.50;;
3000;SDS011;1510;51.072;6.678;2024-01-15T08:54:28;717.77;;;682.03;;
3000;SDS011;1510;51.072;6.678;2024-01-15T08:56:55;723.20;;;685.80;;
3000;SDS011;1510;51.072;6.678;2024-01-15T08:59:23;713.23;;;677.43;;
3000;SDS011;1510;51.072;6.678;2024-01-15T09:01:51;716.90;;;682.03;;
3000;SDS011;1510;51.072;6.678;2024-01-15T09:04:17;706.30;;;672.13;;
3000;SDS011;1510;51.072;6.678;2024-01-15T09:06:44;704.00;;;669.60;;
3000;SDS011;1510;51.072;6.678;2024-01-15T09:09:12;722.03;;;685.67;;
3000;SDS011;1510;51.072;6.678;2024-01-15T09:11:39;718.20;;;682.10;;
3000;SDS011;1510;51.072;6.678;2024-01-15T09:14:06;714.80;;;679.37;;
3000;SDS011;1510;51.072;6.678;2024-01-15T09:16:35;715.40;;;679.73;;
3000;SDS011;1510;51.072;6.678;2024-01-15T09:19:02;725.60;;;689.20;;
3000;SDS011;1510;51.072;6.678;2024-01-15T09:21:29;759.07;;;718.57;;
3000;SDS011;1510;51.072;6.678;2024-01-15T09:23:56;788.10;;;741.83;;
3000;SDS011;1510;51.072;6.678;2024-01-15T09:26:23;776.10;;;732.40;;
3000;SDS011;1510;51.072;6.678;2024-01-15T09:28:50;751.47;;;708.67;;
3000;SDS011;1510;51.072;6.678;2024-01-15T09:31:17;761.77;;;717.67;;
3000;SDS011;1510;51.072;6.678;2024-01-15T09:33:46;774.37;;;728.47;;
3000;SDS011;1510;51.072;6.678;2024-01-15T09:36:13;765.53;;;719.67;;
3000;SDS011;1510;51.072;6.678;2024-01-15T09:38:40;765.83;;;720.73;;
3000;SDS011;1510;51.072;6.678;2024-01-15T09:41:07;768.87;;;723.70;;
3000;SDS011;1510;51.072;6.678;2024-01-15T09:43:34;793.67;;;745.97;;
3000;SDS011;1510;51.072;6.678;2024-01-15T09:46:03;788.53;;;740.87;;
3000;SDS011;1510;51.072;6.678;2024-01-15T09:48:30;789.80;;;738.73;;
3000;SDS011;1510;51.072;6.678;2024-01-15T09:51:00;819.23;;;764.00;;
3000;SDS011;1510;51.072;6.678;2024-01-15T09:53:27;813.23;;;761.27;;
3000;SDS011;1510;51.072;6.678;2024-01-15T09:55:54;814.00;;;761.27;;
3000;SDS011;1510;51.072;6.678;2024-01-15T09:58:22;815.20;;;762.70;;
3000;SDS011;1510;51.072;6.678;2024-01-15T10:00:49;845.63;;;790.93;;
3000;SDS011;1510;51.072;6.678;2024-01-15T10:03:17;874.00;;;817.07;;
3000;SDS011;1510;51.072;6.678;2024-01-15T10:05:46;847.90;;;792.80;;
3000;SDS011;1510;51.072;6.678;2024-01-15T10:08:17;834.53;;;779.17;;
3000;SDS011;1510;51.072;6.678;2024-01-15T10:10:44;813.70;;;760.00;;
3000;SDS011;1510;51.072;6.678;2024-01-15T10:13:11;819.13;;;764.37;;
3000;SDS011;1510;51.072;6.678;2024-01-15T10:15:39;808.57;;;755.37;;
3000;SDS011;1510;51.072;6.678;2024-01-15T10:18:07;808.67;;;754.97;;
3000;SDS011;1510;51.072;6.678;2024-01-15T10:20:34;800.40;;;748.07;;
3000;SDS011;1510;51.072;6.678;2024-01-15T10:23:01;800.00;;;747.30;;
3000;SDS011;1510;51.072;6.678;2024-01-15T10:25:30;796.70;;;745.17;;
3000;SDS011;1510;51.072;6.678;2024-01-15T10:28:00;805.67;;;753.33;;
3000;SDS011;1510;51.072;6.678;2024-01-15T10:30:28;815.30;;;760.35;;
3000;SDS011;1510;51.072;6.678;2024-01-15T10:32:58;823.27;;;767.67;;
3000;SDS011;1510;51.072;6.678;2024-01-15T10:35:26;836.27;;;778.87;;
3000;SDS011;1510;51.072;6.678;2024-01-15T10:37:54;842.43;;;785.90;;
3000;SDS011;1510;51.072;6.678;2024-01-15T10:40:21;860.63;;;802.57;;
3000;SDS011;1510;51.072;6.678;2024-01-15T10:42:50;874.83;;;815.53;;
3000;SDS011;1510;51.072;6.678;2024-01-15T10:45:17;858.37;;;799.93;;
3000;SDS011;1510;51.072;6.678;2024-01-15T10:47:44;855.07;;;794.47;;
3000;SDS011;1510;51.072;6.678;2024-01-15T10:50:11;834.20;;;777.77;;
3000;SDS011;1510;51.072;6.678;2024-01-15T10:52:39;817.70;;;761.67;;
3000;SDS011;1510;51.072;6.678;2024-01-15T10:55:07;805.40;;;751.33;;
3000;SDS011;1510;51.072;6.678;2024-01-15T10:57:35;796.10;;;743.40;;
3000;SDS011;1510;51.072;6.678;2024-01-15T11:00:04;805.23;;;751.50;;
3000;SDS011;1510;51.072;6.678;2024-01-15T11:02:32;794.10;;;741.87;;
3000;SDS011;1510;51.072;6.678;2024-01-15T11:05:00;783.90;;;733.30;;
3000;SDS011;1510;51.072;6.678;2024-01-15T11:07:27;778.77;;;729.43;;
3000;SDS011;1510;51.072;6.678;2024-01-15T11:09:56;779.57;;;729.73;;
3000;SDS011;1510;51.072;6.678;2024-01-15T11:12:24;781.73;;;734.50;;
3000;SDS011;1510;51.072;6.678;2024-01-15T11:14:51;789.23;;;742.90;;
3000;SDS011;1510;51.072;6.678;2024-01-15T11:17:21;803.50;;;756.73;;
3000;SDS011;1510;51.072;6.678;2024-01-15T11:19:48;811.33;;;763.40;;
3000;SDS011;1510;51.072;6.678;2024-01-15T11:25:15;801.20;;;757.97;;
3000;SDS011;1510;51.072;6.678;2024-01-15T11:27:44;809.37;;;765.33;;
3000;SDS011;1510;51.072;6.678;2024-01-15T11:30:16;776.22;;;739.42;;
3000;SDS011;1510;51.072;6.678;2024-01-15T11:32:46;725.17;;;694.63;;
3000;SDS011;1510;51.072;6.678;2024-01-15T11:35:13;760.03;;;724.93;;
3000;SDS011;1510;51.072;6.678;2024-01-15T11:37:57;749.67;;;716.47;;
3000;SDS011;1510;51.072;6.678;2024-01-15T11:40:36;746.50;;;714.30;;
3000;SDS011;1510;51.072;6.678;2024-01-15T11:43:04;775.17;;;739.40;;
3000;SDS011;1510;51.072;6.678;2024-01-15T11:45:31;760.83;;;727.73;;
3000;SDS011;1510;51.072;6.678;2024-01-15T11:50:43;773.67;;;738.33;;
3000;SDS011;1510;51.072;6.678;2024-01-15T11:53:13;774.50;;;738.37;;
3000;SDS011;1510;51.072;6.678;2024-01-15T11:55:44;702.30;;;674.30;;
3000;SDS011;1510;51.072;6.678;2024-01-15T11:58:13;742.40;;;708.30;;
3000;SDS011;1510;51.072;6.678;2024-01-15T12:00:42;700.93;;;670.27;;
3000;SDS011;1510;51.072;6.678;2024-01-15T12:03:10;365.00;;;352.10;;
3000;SDS011;1510;51.072;6.678;2024-01-15T12:05:38;189.53;;;181.63;;
3000;SDS011;1510;51.072;6.678;2024-01-15T12:08:07;170.80;;;163.57;;
3000;SDS011;1510;51.072;6.678;2024-01-15T12:10:36;97.40;;;92.20;;
3000;SDS011;1510;51.072;6.678;2024-01-15T12:13:05;80.27;;;75.73;;
3000;SDS011;1510;51.072;6.678;2024-01-15T12:15:36;73.23;;;69.33;;
3000;SDS011;1510;51.072;6.678;2024-01-15T12:18:06;75.83;;;71.20;;
3000;SDS011;1510;51.072;6.678;2024-01-15T12:20:34;64.33;;;60.43;;
3000;SDS011;1510;51.072;6.678;2024-01-15T12:23:03;62.27;;;59.17;;
3000;SDS011;1510;51.072;6.678;2024-01-15T12:25:31;59.07;;;55.77;;
3000;SDS011;1510;51.072;6.678;2024-01-15T12:27:58;62.13;;;58.93;;
3000;SDS011;1510;51.072;6.678;2024-01-15T12:30:26;77.53;;;74.03;;
3000;SDS011;1510;51.072;6.678;2024-01-15T12:32:53;88.77;;;84.57;;
3000;SDS011;1510;51.072;6.678;2024-01-15T12:35:20;101.27;;;96.73;;
3000;SDS011;1510;51.072;6.678;2024-01-15T12:37:47;122.07;;;117.30;;
3000;SDS011;1510;51.072;6.678;2024-01-15T12:40:19;123.60;;;118.87;;
3000;SDS011;1510;51.072;6.678;2024-01-15T12:42:47;116.50;;;111.63;;
3000;SDS011;1510;51.072;6.678;2024-01-15T12:45:13;157.33;;;151.30;;
3000;SDS011;1510;51.072;6.678;2024-01-15T12:47:40;112.70;;;108.33;;
3000;SDS011;1510;51.072;6.678;2024-01-15T12:50:09;153.47;;;147.47;;
3000;SDS011;1510;51.072;6.678;2024-01-15T12:52:38;169.83;;;163.43;;
3000;SDS011;1510;51.072;6.678;2024-01-15T12:55:07;204.40;;;196.97;;
3000;SDS011;1510;51.072;6.678;2024-01-15T12:57:35;231.43;;;223.53;;
3000;SDS011;1510;51.072;6.678;2024-01-15T13:00:04;272.60;;;263.30;;
3000;SDS011;1510;51.072;6.678;2024-01-15T13:02:32;304.20;;;293.70;;
3000;SDS011;1510;51.072;6.678;2024-01-15T13:04:59;307.73;;;297.70;;
3000;SDS011;1510;51.072;6.678;2024-01-15T13:07:28;342.90;;;331.17;;
3000;SDS011;1510;51.072;6.678;2024-01-15T13:09:55;351.77;;;340.27;;
3000;SDS011;1510;51.072;6.678;2024-01-15T13:12:22;390.63;;;378.00;;
3000;SDS011;1510;51.072;6.678;2024-01-15T13:14:50;439.43;;;424.03;;
3000;SDS011;1510;51.072;6.678;2024-01-15T13:17:17;409.93;;;396.53;;
3000;SDS011;1510;51.072;6.678;2024-01-15T13:19:45;420.90;;;407.20;;
3000;SDS011;1510;51.072;6.678;2024-01-15T13:22:12;452.50;;;437.10;;
3000;SDS011;1510;51.072;6.678;2024-01-15T13:24:39;523.73;;;505.37;;
3000;SDS011;1510;51.072;6.678;2024-01-15T13:27:06;510.63;;;492.53;;
3000;SDS011;1510;51.072;6.678;2024-01-15T13:29:33;525.30;;;506.93;;
3000;SDS011;1510;51.072;6.678;2024-01-15T13:32:01;538.30;;;519.23;;
3000;SDS011;1510;51.072;6.678;2024-01-15T13:34:29;539.37;;;520.37;;
3000;SDS011;1510;51.072;6.678;2024-01-15T13:36:56;559.07;;;539.03;;
3000;SDS011;1510;51.072;6.678;2024-01-15T13:39:23;561.57;;;541.27;;
3000;SDS011;1510;51.072;6.678;2024-01-15T13:41:50;573.73;;;552.77;;
3000;SDS011;1510;51.072;6.678;2024-01-15T13:44:16;568.33;;;547.13;;
3000;SDS011;1510;51.072;6.678;2024-01-15T13:46:44;562.87;;;542.27;;
3000;SDS011;1510;51.072;6.678;2024-01-15T13:49:12;580.03;;;558.90;;
3000;SDS011;1510;51.072;6.678;2024-01-15T13:51:39;616.07;;;593.70;;
3000;SDS011;1510;51.072;6.678;2024-01-15T13:54:06;616.57;;;594.27;;
3000;SDS011;1510;51.072;6.678;2024-01-15T13:56:33;636.07;;;612.70;;
3000;SDS011;1510;51.072;6.678;2024-01-15T13:59:00;671.40;;;645.90;;
3000;SDS011;1510;51.072;6.678;2024-01-15T14:01:29;730.93;;;701.00;;
3000;SDS011;1510;51.072;6.678;2024-01-15T14:03:56;730.77;;;700.97;;
3000;SDS011;1510;51.072;6.678;2024-01-15T14:06:24;726.67;;;696.97;;
3000;SDS011;1510;51.072;6.678;2024-01-15T14:08:51;723.77;;;694.43;;
3000;SDS011;1510;51.072;6.678;2024-01-15T14:11:18;718.33;;;689.13;;
3000;SDS011;1510;51.072;6.678;2024-01-15T14:13:45;709.57;;;680.47;;
3000;SDS011;1510;51.072;6.678;2024-01-15T14:16:12;717.57;;;688.70;;
3000;SDS011;1510;51.072;6.678;2024-01-15T14:18:39;710.10;;;681.07;;
3000;SDS011;1510;51.072;6.678;2024-01-15T14:21:06;742.17;;;710.70;;
3000;SDS011;1510;51.072;6.678;2024-01-15T14:23:34;745.73;;;713.43;;
3000;SDS011;1510;51.072;6.678;2024-01-15T14:26:01;740.83;;;709.07;;
3000;SDS011;1510;51.072;6.678;2024-01-15T14:28:29;754.40;;;720.60;;
3000;SDS011;1510;51.072;6.678;2024-01-15T14:30:56;784.45;;;744.95;;